Amite, Louisiana
Current Conditions -  °F | °C
As of 3:12 AM on Monday 22 Dec 2014 (Local Time) from KMCB Reporting Station
Haze Haze  
Wind Chill: 53°   Ceiling: 200
Heat Index: 53°   Visibility: 0.75mi
Dew Point: 52°   Wind: 0mph
Humidity: 96%   Direction: NA
Pressure: 29.89"   Gusts: NA
Location:  30.73°N, 90.51°W
Report Text: KMCB 220912Z AUTO 00000KT 3/4SM BR VV002 12/11 A2989 RMK AO2 T01170111 $
Loading
Personal Weather Stations






























Interactive Weather Map New forecast layout! Learn more

10-Day Weather Forecast

Advertisements
Track Severe Weather on mobile